Hauptseite
METAR-TAF:

METAR-TAF

Flughäfen :

Piacenza, Italien

Militärflugplatz Piacenza

Breite: 44-55N, Länge: 009-44E, Höhe: 134 m

Beobachtung

Neuester Wetterbericht von vor 53 Minuten, um 11:55 UTC
Wind 3 kt aus Ost
Temperatur 7°C
Luftfeuchtigkeit 61%
Luftdruck 1011 hPa
Sichtweite 10 km oder mehr
keine Wolken unter 1500 m und keine Kumulonimbus oder Gewitterwolken

METAR: LIMS 201155Z 09003KT CAVOK 07/00 Q1011 RMK BKN BKN200 VIS MIN 9999 WIND THR30 06003KT BLU

Zeit: 13:48 (12:48 UTC)


TAF: fehlend

Wetterbeobachtungen und Prognosen von mehr als 4000 Flughäfen (METAR und TAF Bericht).

Die verfügbaren Stationen werden durch gelbe und rote Markierungen auf der Karte dargestellt.

Führen Sie die Maus auf sie, um den Namen der Station zu sehen.

Darauf klicken, um die Beobachtung von Wetterbeobachtungen und Prognosen zu sehen.

Um die Karte zu ändern : klicken Sie auf den grünen Tasten mit einem schwarzen Kreuz Zum Vergrößern, auf den grünen Button mit einem Gedankenstrich zu verkleinern, oder auf die grünen Pfeile für benachbarte Karten.


METAR-TAF: